Time;durP1;ratioP1;P1;durP2;ratioP2;P2;SDS_P1;SDS_P2;PMS_P1;PMS_P2;Temp;Humidity;BMP_temperature;BMP_pressure;BME280_temperature;BME280_humidity;BME280_pressure;Samples;Min_cycle;Max_cycle;Signal;HPM_P1;HPM_P2
2023/08/06 07:15:55;;;;;;;28.77;8.40;;;;;;;28.02;58.80;99908.91;5704572;23;20061;-91
2023/08/06 07:18:21;;;;;;;21.92;8.15;;;;;;;28.05;57.93;99904.50;4895967;29;20539;-86
2023/08/06 07:20:51;;;;;;;23.10;8.00;;;;;;;28.21;57.67;99917.94;4954432;29;20390;-88
2023/08/06 07:23:18;;;;;;;21.33;8.43;;;;;;;28.21;56.48;99913.16;4962016;28;20043;-86
2023/08/06 07:25:45;;;;;;;25.48;8.18;;;;;;;28.23;56.72;99902.25;4901658;28;20039;-86
2023/08/06 07:28:12;;;;;;;33.08;8.75;;;;;;;28.31;57.15;99902.97;4950440;28;20043;-87
2023/08/06 07:30:39;;;;;;;26.45;8.65;;;;;;;28.38;57.46;99899.28;4946574;29;20043;-90
2023/08/06 07:33:06;;;;;;;40.95;8.30;;;;;;;28.48;55.16;99901.22;4946743;28;20077;-86
2023/08/06 07:35:32;;;;;;;;;;;;;;;28.65;56.38;99913.44;4942764;29;20509;-87
2023/08/06 07:37:58;;;;;;;21.83;7.28;;;;;;;28.64;56.79;99900.59;4911148;29;20410;-86
2023/08/06 07:40:24;;;;;;;18.63;7.93;;;;;;;28.71;57.03;99894.84;4944052;29;20119;-85
2023/08/06 07:42:50;;;;;;;27.85;8.48;;;;;;;28.73;56.83;99893.22;4938248;29;20130;-84
2023/08/06 07:45:16;;;;;;;17.73;6.97;;;;;;;28.79;54.09;99896.38;4936014;29;20513;-84
2023/08/06 07:47:42;;;;;;;12.48;6.60;;;;;;;28.95;53.62;99909.81;4922769;29;20074;-88
2023/08/06 07:50:09;;;;;;;15.10;7.38;;;;;;;29.01;53.48;99917.41;4944885;28;20122;-82
2023/08/06 07:52:35;;;;;;;23.92;7.07;;;;;;;29.00;52.71;99910.16;4949088;29;20529;-87
2023/08/06 07:55:04;;;;;;;24.13;7.60;;;;;;;29.13;52.74;99915.22;4940266;29;20189;-87
2023/08/06 07:57:31;;;;;;;14.95;7.28;;;;;;;29.10;51.25;99899.97;4927672;29;20131;-87
2023/08/06 07:59:57;;;;;;;15.35;6.95;;;;;;;29.18;51.80;99895.03;4913094;29;20063;-85
2023/08/06 08:02:24;;;;;;;33.72;7.45;;;;;;;29.17;52.02;99894.25;4930386;28;20126;-86
2023/08/06 08:04:50;;;;;;;40.83;7.13;;;;;;;29.25;52.86;99897.75;4919905;29;20044;-86
2023/08/06 08:07:16;;;;;;;36.60;7.90;;;;;;;29.41;53.58;99903.50;4936795;28;20071;-89
2023/08/06 08:09:42;;;;;;;21.15;8.02;;;;;;;29.40;53.34;99892.66;4952145;28;20540;-85
2023/08/06 08:12:09;;;;;;;15.70;7.22;;;;;;;29.55;53.09;99899.66;4946325;29;20133;-85
2023/08/06 08:14:36;;;;;;;19.25;7.05;;;;;;;29.45;51.08;99884.53;4918804;29;20036;-87
2023/08/06 08:17:05;;;;;;;21.52;7.40;;;;;;;29.59;52.05;99891.94;4953246;29;20062;-88
2023/08/06 08:19:32;;;;;;;24.58;8.45;;;;;;;29.57;50.43;99882.31;4925300;29;20035;-86
2023/08/06 08:21:58;;;;;;;19.10;8.27;;;;;;;29.72;51.66;99890.13;4936940;29;20032;-87
2023/08/06 08:24:24;;;;;;;23.70;8.80;;;;;;;29.81;51.49;99885.97;4931815;29;20040;-90
2023/08/06 08:26:51;;;;;;;14.35;7.82;;;;;;;29.78;51.39;99859.44;4952439;28;20041;-86
2023/08/06 08:29:17;;;;;;;24.05;7.50;;;;;;;29.89;50.75;99876.13;4931628;29;20142;-88
2023/08/06 08:31:44;;;;;;;17.52;7.00;;;;;;;29.86;50.77;99871.34;4948149;29;20047;-89
2023/08/06 08:34:13;;;;;;;14.93;7.60;;;;;;;29.97;51.30;99888.88;4933025;29;20078;-86
2023/08/06 08:36:39;;;;;;;18.23;7.05;;;;;;;29.93;50.46;99874.84;4949507;29;20043;-88
2023/08/06 08:39:05;;;;;;;16.85;7.43;;;;;;;29.96;50.81;99868.34;4932250;29;20509;-86
2023/08/06 08:41:33;;;;;;;20.25;7.53;;;;;;;30.00;49.75;99873.94;4937130;29;20429;-89
2023/08/06 08:44:00;;;;;;;21.13;7.88;;;;;;;30.01;50.61;99858.59;4931394;29;20043;-86
2023/08/06 08:46:29;;;;;;;14.77;7.20;;;;;;;30.12;51.20;99870.44;4948988;29;20391;-87
2023/08/06 08:48:57;;;;;;;15.63;7.07;;;;;;;30.22;50.44;99870.69;4882159;29;20145;-85
2023/08/06 08:51:23;;;;;;;12.70;6.50;;;;;;;30.30;48.15;99878.59;4933987;29;20043;-86
2023/08/06 08:53:52;;;;;;;16.35;7.18;;;;;;;30.27;47.56;99864.56;4930153;29;20071;-88
2023/08/06 08:56:19;;;;;;;18.15;7.25;;;;;;;30.41;48.58;99878.38;4956929;29;20413;-83
2023/08/06 08:58:45;;;;;;;22.85;7.32;;;;;;;30.35;49.33;99854.72;4912873;29;20079;-85
2023/08/06 09:01:11;;;;;;;27.35;7.30;;;;;;;30.50;48.18;99858.00;4958581;29;20564;-83
2023/08/06 09:03:38;;;;;;;41.03;7.78;;;;;;;30.52;49.66;99853.53;4937259;29;20425;-84
2023/08/06 09:06:05;;;;;;;25.25;7.40;;;;;;;30.65;49.83;99865.72;4947168;29;20039;-83
2023/08/06 09:08:37;;;;;;;17.58;7.13;;;;;;;30.67;49.38;99865.31;4946185;29;20039;-83
2023/08/06 09:11:04;;;;;;;10.32;6.60;;;;;;;30.64;49.06;99864.16;4949242;29;20028;-85
2023/08/06 09:13:31;;;;;;;60.05;8.05;;;;;;;30.62;47.93;99863.78;4947782;29;20035;-88
2023/08/06 09:16:00;;;;;;;30.35;7.00;;;;;;;30.71;49.01;99865.22;4937844;29;20043;-84
2023/08/06 09:18:30;;;;;;;42.70;8.32;;;;;;;30.72;49.02;99866.81;4904638;29;20078;-86
2023/08/06 09:20:58;;;;;;;12.77;7.15;;;;;;;30.61;48.70;99842.44;4948506;28;20503;-87
2023/08/06 09:23:30;;;;;;;21.58;6.95;;;;;;;30.72;48.74;99847.06;4917316;29;20093;-85
2023/08/06 09:25:57;;;;;;;23.83;7.55;;;;;;;30.78;49.43;99851.78;4936539;29;20444;-87
2023/08/06 09:28:24;;;;;;;23.10;7.18;;;;;;;30.78;49.41;99848.16;4928390;29;20040;-89
2023/08/06 09:30:51;;;;;;;9.82;6.65;;;;;;;30.89;48.98;99848.69;4928163;29;20058;-83
2023/08/06 09:33:19;;;;;;;28.67;7.53;;;;;;;30.95;48.85;99854.63;4925314;29;20126;-84
2023/08/06 09:35:47;;;;;;;20.73;6.80;;;;;;;30.98;49.26;99853.75;4931515;29;20051;-84
2023/08/06 09:38:14;;;;;;;16.55;7.75;;;;;;;30.85;48.63;99831.84;4915381;29;20056;-87
2023/08/06 09:40:40;;;;;;;;;;;;;;;30.98;47.74;99857.34;4947064;29;20058;-86
2023/08/06 09:43:07;;;;;;;19.65;6.95;;;;;;;30.91;48.58;99846.25;4961526;29;19922;-85
2023/08/06 09:45:37;;;;;;;19.90;7.30;;;;;;;30.99;48.45;99850.47;4951118;29;20055;-87
2023/08/06 09:48:05;;;;;;;8.93;7.07;;;;;;;31.01;48.57;99839.53;4930853;29;20051;-88
2023/08/06 09:50:35;;;;;;;8.70;6.70;;;;;;;31.09;49.41;99842.97;4919933;29;20043;-86
2023/08/06 09:53:03;;;;;;;14.13;6.57;;;;;;;31.05;47.71;99836.63;4929056;29;20043;-87
2023/08/06 09:55:30;;;;;;;24.50;6.82;;;;;;;31.00;47.23;99815.38;4927010;29;20078;-86
2023/08/06 09:57:57;;;;;;;22.85;7.40;;;;;;;31.10;47.25;99830.47;4931342;29;20416;-85
2023/08/06 10:00:24;;;;;;;30.42;7.90;;;;;;;31.16;47.46;99827.88;4947635;29;20035;-86
2023/08/06 10:02:54;;;;;;;15.98;7.00;;;;;;;31.16;46.58;99808.13;4946237;29;20040;-88
2023/08/06 10:05:21;;;;;;;19.55;6.65;;;;;;;31.25;46.88;99808.28;4947639;29;20039;-86
2023/08/06 10:07:47;;;;;;;11.55;6.70;;;;;;;31.27;46.69;99800.19;4945826;29;20561;-87
2023/08/06 10:10:13;;;;;;;11.68;7.43;;;;;;;31.34;45.37;99802.84;4938938;29;20043;-86
2023/08/06 10:12:46;;;;;;;15.93;7.00;;;;;;;31.33;46.09;99789.97;4945042;29;20039;-88
2023/08/06 10:15:15;;;;;;;8.40;6.45;;;;;;;31.51;46.20;99812.88;4937146;29;20117;-85
2023/08/06 10:17:45;;;;;;;16.00;6.80;;;;;;;31.48;46.19;99808.13;4915350;29;20048;-86
2023/08/06 10:20:12;;;;;;;13.95;6.80;;;;;;;31.54;46.18;99809.16;4912477;29;20054;-89
2023/08/06 10:22:43;;;;;;;9.75;6.95;;;;;;;31.50;45.62;99790.72;4941852;29;20488;-90
2023/08/06 10:25:10;;;;;;;19.70;6.22;;;;;;;31.59;45.09;99794.50;4945054;29;20050;-88
2023/08/06 10:27:53;;;;;;;;;;;;;;;31.70;44.35;99799.84;4945785;29;20130;-86
2023/08/06 10:30:33;;;;;;;10.05;6.80;;;;;;;31.58;44.49;99786.47;4898445;29;19933;-88
2023/08/06 10:33:01;;;;;;;11.93;7.50;;;;;;;31.66;44.69;99802.00;4932039;29;20104;-82
2023/08/06 10:35:53;;;;;;;13.77;6.63;;;;;;;31.57;45.87;99796.19;4940973;29;20051;-83
2023/08/06 10:38:31;;;;;;;11.40;7.18;;;;;;;31.32;46.08;99782.69;4920066;29;20457;-86
2023/08/06 10:40:58;;;;;;;16.95;7.35;;;;;;;31.51;46.00;99795.91;4951103;29;20035;-83
2023/08/06 10:43:32;;;;;;;13.13;7.22;;;;;;;31.57;46.54;99785.66;4908666;29;20070;-89
2023/08/06 10:46:02;;;;;;;16.70;7.18;;;;;;;31.79;45.70;99796.41;4943193;29;20046;-85
2023/08/06 10:48:41;;;;;;;15.13;6.90;;;;;;;31.95;45.51;99799.16;4884968;29;20050;-83
2023/08/06 10:51:12;;;;;;;16.38;7.28;;;;;;;31.89;44.93;99784.03;4938652;29;20114;-83
2023/08/06 10:53:42;;;;;;;20.10;7.15;;;;;;;31.91;44.69;99790.00;4937756;29;20094;-83
2023/08/06 10:56:16;;;;;;;18.67;7.53;;;;;;;31.97;45.07;99779.72;4921765;29;20036;-82
2023/08/06 10:58:46;;;;;;;20.40;7.30;;;;;;;32.07;44.58;99785.53;4944728;29;20035;-84
2023/08/06 11:01:12;;;;;;;11.50;8.15;;;;;;;32.18;45.27;99780.34;4946615;29;20032;-83
2023/08/06 11:03:40;;;;;;;10.82;7.90;;;;;;;32.22;44.93;99775.34;4949408;29;20035;-84
2023/08/06 11:06:10;;;;;;;13.82;8.10;;;;;;;32.28;43.92;99773.56;4935272;29;20043;-85
2023/08/06 11:08:37;;;;;;;16.08;7.32;;;;;;;32.20;43.65;99761.69;4947056;29;20054;-90
2023/08/06 11:11:14;;;;;;;16.17;7.88;;;;;;;32.27;44.55;99772.78;4947653;29;20039;-90
2023/08/06 11:13:42;;;;;;;14.20;8.23;;;;;;;32.40;44.50;99774.84;4946471;29;20046;-91
2023/08/06 11:16:08;;;;;;;25.40;8.30;;;;;;;32.45;43.54;99772.28;4929344;29;20141;-83
2023/08/06 11:18:35;;;;;;;19.42;9.18;;;;;;;32.46;43.91;99768.19;4947081;29;20043;-85
2023/08/06 11:21:02;;;;;;;23.75;8.13;;;;;;;32.46;44.30;99756.88;4927412;29;20039;-83
2023/08/06 11:23:29;;;;;;;22.02;8.63;;;;;;;32.65;44.33;99769.22;4942067;29;20050;-86
2023/08/06 11:25:58;;;;;;;28.25;8.38;;;;;;;32.57;43.04;99753.69;4932870;29;20086;-85
2023/08/06 11:28:24;;;;;;;14.18;8.13;;;;;;;32.81;43.51;99770.31;4927922;29;20045;-85
2023/08/06 11:30:51;;;;;;;15.48;8.05;;;;;;;32.74;42.58;99762.84;4944666;29;20039;-84
2023/08/06 11:33:26;;;;;;;15.40;7.65;;;;;;;32.70;42.41;99760.13;4914917;29;20075;-82
2023/08/06 11:35:54;;;;;;;13.98;7.68;;;;;;;32.86;43.12;99770.56;4946963;29;20055;-87
2023/08/06 11:38:21;;;;;;;29.08;8.68;;;;;;;32.92;42.69;99765.13;4928754;29;20043;-86
2023/08/06 11:40:50;;;;;;;;;;;;;;;33.04;42.52;99763.53;4942959;29;20032;-84
2023/08/06 11:43:19;;;;;;;21.65;8.55;;;;;;;33.01;42.76;99753.88;4943042;29;19923;-86
2023/08/06 11:45:45;;;;;;;15.48;7.50;;;;;;;33.07;41.24;99754.13;4933051;29;20461;-89
2023/08/06 11:48:10;;;;;;;;;;;;;;;33.20;42.18;99761.31;4934565;29;20100;-93
2023/08/06 11:50:40;;;;;;;16.85;7.72;;;;;;;33.28;41.67;99761.88;4942011;29;19922;-91
2023/08/06 11:53:07;;;;;;;16.73;8.25;;;;;;;33.20;40.86;99749.19;4951219;29;20043;-88
2023/08/06 11:55:33;;;;;;;18.90;8.27;;;;;;;33.22;42.07;99760.88;4948663;29;20090;-89
2023/08/06 11:58:06;;;;;;;25.25;14.85;;;;;;;33.22;41.82;99755.22;4955381;29;20073;-93
2023/08/06 12:00:49;;;;;;;25.83;12.10;;;;;;;33.23;42.32;99751.13;4952104;29;20039;-92
2023/08/06 12:03:20;;;;;;;21.50;9.80;;;;;;;33.19;42.36;99745.59;4941291;29;20052;-87
2023/08/06 12:05:47;;;;;;;31.08;8.93;;;;;;;33.24;42.11;99744.19;4938349;29;20071;-86
2023/08/06 12:08:12;;;;;;;;;;;;;;;33.21;42.67;99747.94;4951882;29;20051;-88
2023/08/06 12:10:38;;;;;;;24.25;7.55;;;;;;;32.92;42.85;99740.41;4959996;29;20021;-89
2023/08/06 12:13:04;;;;;;;;;;;;;;;32.73;43.12;99753.56;4916144;29;20039;-88
2023/08/06 12:15:30;;;;;;;22.80;7.85;;;;;;;32.32;43.51;99714.84;4912709;29;19930;-90
2023/08/06 12:17:56;;;;;;;;;;;;;;;32.24;43.67;99738.94;4935867;29;20050;-87
2023/08/06 12:20:23;;;;;;;20.63;8.32;;;;;;;32.19;44.12;99728.19;4952909;29;19922;-90
2023/08/06 12:22:49;;;;;;;20.27;8.18;;;;;;;32.44;44.12;99718.94;4943160;29;20438;-87
2023/08/06 12:25:15;;;;;;;16.75;11.35;;;;;;;32.67;42.50;99721.41;4961124;29;20054;-88
2023/08/06 12:27:45;;;;;;;28.85;11.50;;;;;;;32.89;42.10;99723.53;4960673;29;20042;-93
2023/08/06 12:30:13;;;;;;;37.97;12.18;;;;;;;33.09;42.62;99726.91;4942991;28;20062;-93
2023/08/06 12:32:39;;;;;;;16.33;8.75;;;;;;;33.12;41.77;99736.56;4917165;29;20103;-91
2023/08/06 12:35:09;;;;;;;20.02;8.10;;;;;;;33.19;42.41;99730.63;4947839;29;20047;-90
2023/08/06 12:37:38;;;;;;;17.88;8.40;;;;;;;33.14;40.13;99723.50;4899256;29;20035;-90
2023/08/06 12:40:06;;;;;;;12.85;7.68;;;;;;;33.14;42.14;99720.66;4915010;29;20035;-94
2023/08/06 12:42:32;;;;;;;22.15;9.23;;;;;;;32.93;42.32;99699.50;4915624;29;20046;-90
2023/08/06 12:44:58;;;;;;;;;;;;;;;33.21;42.10;99726.09;4953757;29;20413;-88
2023/08/06 12:47:24;;;;;;;21.20;7.55;;;;;;;33.05;42.55;99708.44;4928368;29;19992;-90
2023/08/06 12:49:50;;;;;;;;;;;;;;;33.27;41.99;99726.28;4914615;29;20556;-92
2023/08/06 12:52:17;;;;;;;16.67;8.90;;;;;;;33.36;43.84;99711.41;4927799;29;19922;-88
2023/08/06 12:54:46;;;;;;;29.70;8.20;;;;;;;33.44;42.30;99713.53;4943103;29;20625;-87
2023/08/06 12:57:12;;;;;;;43.65;10.45;;;;;;;33.58;42.88;99717.91;4932413;29;20559;-85
2023/08/06 12:59:38;;;;;;;24.17;10.77;;;;;;;33.53;42.39;99703.53;4946370;29;20039;-85
2023/08/06 13:02:05;;;;;;;;;;;;;;;33.56;41.48;99709.06;4947939;29;20043;-86
2023/08/06 13:04:31;;;;;;;13.30;7.68;;;;;;;33.43;40.29;99726.09;4946745;29;19927;-88
2023/08/06 13:06:57;;;;;;;15.40;8.05;;;;;;;33.32;40.57;99699.41;4927989;29;20046;-87
2023/08/06 13:09:24;;;;;;;;;;;;;;;33.50;41.68;99710.13;4949444;29;20053;-92
2023/08/06 13:11:50;;;;;;;29.13;8.02;;;;;;;33.30;40.41;99691.38;4934088;29;20013;-89
2023/08/06 13:14:17;;;;;;;20.92;7.95;;;;;;;33.51;40.97;99700.38;4931991;29;20520;-91
2023/08/06 13:16:44;;;;;;;17.80;9.25;;;;;;;33.48;40.49;99698.41;4948051;29;20051;-84
2023/08/06 13:19:13;;;;;;;19.25;8.45;;;;;;;33.48;41.36;99702.06;4949876;29;20043;-84
2023/08/06 13:21:42;;;;;;;42.58;9.75;;;;;;;33.42;41.51;99701.84;4949941;29;20040;-88
2023/08/06 13:24:08;;;;;;;22.10;9.13;;;;;;;33.46;40.97;99696.06;4931361;29;20078;-88
2023/08/06 13:26:35;;;;;;;16.17;8.10;;;;;;;33.43;41.87;99677.94;4918917;29;20091;-86
2023/08/06 13:29:02;;;;;;;18.65;8.82;;;;;;;33.41;41.43;99688.94;4929681;29;20066;-84
2023/08/06 13:31:28;;;;;;;25.88;10.05;;;;;;;33.38;41.08;99689.88;4925895;29;20047;-83
2023/08/06 13:33:55;;;;;;;21.85;9.30;;;;;;;33.30;40.08;99693.41;4930339;29;20055;-83
2023/08/06 13:36:22;;;;;;;26.17;8.70;;;;;;;33.26;39.86;99701.25;4934132;29;20142;-84
2023/08/06 13:38:49;;;;;;;25.17;8.80;;;;;;;33.24;41.91;99696.03;4950002;29;20040;-83
2023/08/06 13:41:15;;;;;;;26.17;9.05;;;;;;;33.37;41.33;99691.09;4949126;29;20043;-85
2023/08/06 13:43:44;;;;;;;19.42;9.52;;;;;;;33.38;41.39;99683.41;4946874;29;20074;-84
2023/08/06 13:46:14;;;;;;;28.55;9.27;;;;;;;33.35;41.39;99675.84;4945737;29;20095;-82
2023/08/06 13:48:40;;;;;;;15.93;9.40;;;;;;;33.31;41.24;99669.47;4947425;29;20040;-86
2023/08/06 13:51:06;;;;;;;;;;;;;;;33.41;39.98;99685.28;4945558;29;20107;-85
2023/08/06 13:53:32;;;;;;;18.90;9.05;;;;;;;33.35;41.76;99687.16;4947994;29;20404;-83
2023/08/06 13:55:58;;;;;;;;;;;;;;;33.38;42.34;99680.59;4946703;29;20074;-83
2023/08/06 13:58:25;;;;;;;20.00;8.90;;;;;;;33.36;41.96;99671.72;4929861;29;19968;-84
2023/08/06 14:00:54;;;;;;;17.30;8.98;;;;;;;33.24;40.69;99664.88;4947789;29;20098;-83
2023/08/06 14:03:20;;;;;;;19.98;8.68;;;;;;;33.22;40.99;99668.16;4946281;29;20553;-86
2023/08/06 14:05:46;;;;;;;16.90;8.95;;;;;;;33.17;41.78;99671.56;4928974;29;20059;-86
2023/08/06 14:08:13;;;;;;;;;;;;;;;33.20;42.25;99681.22;4949201;29;20047;-85
2023/08/06 14:10:39;;;;;;;25.15;8.48;;;;;;;33.10;41.95;99674.66;4945861;29;19985;-87
2023/08/06 14:13:05;;;;;;;;;;;;;;;32.95;40.98;99682.84;4949565;29;20126;-88
2023/08/06 14:15:33;;;;;;;18.00;8.00;;;;;;;32.90;41.73;99663.59;4951787;29;19968;-84
2023/08/06 14:17:59;;;;;;;26.27;9.02;;;;;;;33.02;42.31;99670.53;4948836;29;20114;-84
2023/08/06 14:20:26;;;;;;;23.15;8.35;;;;;;;33.01;43.01;99663.25;4931620;29;20070;-88
2023/08/06 14:22:52;;;;;;;19.35;9.18;;;;;;;33.04;42.78;99667.22;4948666;29;20382;-89
2023/08/06 14:25:18;;;;;;;20.02;8.50;;;;;;;33.07;42.17;99664.25;4950190;29;20046;-87
2023/08/06 14:27:44;;;;;;;;;;;;;;;33.14;42.98;99666.03;4948681;29;20042;-86
2023/08/06 14:30:10;;;;;;;16.00;8.63;;;;;;;33.10;42.31;99656.88;4931337;28;19926;-85
2023/08/06 14:32:36;;;;;;;76.07;9.02;;;;;;;33.06;42.35;99647.72;4928230;29;20129;-88
2023/08/06 14:35:02;;;;;;;26.65;8.20;;;;;;;33.02;42.55;99641.41;4951126;28;20067;-89
2023/08/06 14:37:28;;;;;;;21.33;9.75;;;;;;;33.07;42.69;99652.91;4948785;29;20050;-90
2023/08/06 14:39:54;;;;;;;;;;;;;;;33.12;42.62;99660.84;4945960;29;20047;-90
2023/08/06 14:42:21;;;;;;;28.60;11.27;;;;;;;33.05;41.47;99641.28;4939271;29;20388;-87
2023/08/06 14:44:46;;;;;;;14.85;8.23;;;;;;;33.06;41.81;99648.50;4938138;29;20042;-89
2023/08/06 14:47:12;;;;;;;17.63;7.88;;;;;;;33.14;41.15;99661.16;4936350;29;20035;-89
2023/08/06 14:49:38;;;;;;;10.73;7.85;;;;;;;33.07;40.91;99652.13;4951273;29;20036;-86
2023/08/06 14:52:05;;;;;;;;;;;;;;;33.03;41.17;99657.94;4918031;29;20138;-84
2023/08/06 14:54:31;;;;;;;17.70;8.43;;;;;;;32.88;41.11;99642.66;4916571;29;19954;-83
2023/08/06 14:56:57;;;;;;;22.10;8.65;;;;;;;32.81;41.61;99637.25;4944933;29;20456;-83
2023/08/06 14:59:24;;;;;;;47.33;11.13;;;;;;;32.93;41.07;99642.06;4930544;29;20044;-86
2023/08/06 15:01:51;;;;;;;23.83;11.40;;;;;;;32.97;41.57;99645.59;4945882;29;20054;-84
2023/08/06 15:04:18;;;;;;;;;;;;;;;33.02;42.09;99655.56;4929476;29;20138;-86
2023/08/06 15:06:45;;;;;;;48.33;18.85;;;;;;;33.01;42.00;99645.47;4944578;29;19922;-83
2023/08/06 15:09:12;;;;;;;20.13;10.70;;;;;;;33.03;41.79;99645.81;4946370;29;20066;-87
2023/08/06 15:11:38;;;;;;;28.60;11.32;;;;;;;32.91;41.77;99648.19;4946973;29;20043;-84
2023/08/06 15:14:06;;;;;;;20.50;9.40;;;;;;;32.96;41.56;99652.53;4930433;29;20047;-88
2023/08/06 15:16:34;;;;;;;19.00;10.02;;;;;;;32.89;42.59;99638.59;4945195;29;20043;-82
2023/08/06 15:19:00;;;;;;;20.58;10.02;;;;;;;33.00;41.75;99660.88;4947394;29;20039;-84
2023/08/06 15:21:28;;;;;;;36.85;15.70;;;;;;;32.92;41.92;99643.34;4914870;29;20043;-85
2023/08/06 15:23:55;;;;;;;35.42;11.02;;;;;;;32.68;41.84;99614.63;4947253;29;20512;-84
2023/08/06 15:26:21;;;;;;;30.10;15.13;;;;;;;32.83;41.99;99641.19;4932164;29;20039;-93
2023/08/06 15:28:47;;;;;;;37.70;14.20;;;;;;;32.83;42.30;99644.03;4952645;29;20039;-90
2023/08/06 15:31:13;;;;;;;;;;;;;;;32.79;42.92;99651.88;4952504;29;20063;-89
2023/08/06 15:33:40;;;;;;;17.05;9.40;;;;;;;32.61;41.87;99649.63;4932975;29;19927;-91
2023/08/06 15:36:08;;;;;;;23.85;11.60;;;;;;;32.59;42.47;99648.53;4934436;29;20043;-88
2023/08/06 15:38:34;;;;;;;19.02;9.85;;;;;;;32.45;42.97;99630.78;4938962;28;20134;-89
2023/08/06 15:41:00;;;;;;;13.48;10.25;;;;;;;32.25;42.24;99621.69;4947300;29;20044;-82
2023/08/06 15:43:27;;;;;;;20.70;12.95;;;;;;;32.31;43.19;99645.34;4948906;29;20111;-83
2023/08/06 15:45:53;;;;;;;21.92;9.73;;;;;;;32.16;42.61;99655.56;4952601;29;20150;-89
2023/08/06 15:48:19;;;;;;;24.00;11.35;;;;;;;32.05;43.22;99658.69;4931880;28;20050;-90
2023/08/06 15:50:45;;;;;;;22.25;10.70;;;;;;;31.80;43.48;99643.28;4957335;28;20035;-87
2023/08/06 15:53:12;;;;;;;21.08;9.15;;;;;;;31.71;44.29;99653.66;4931101;29;20047;-83
2023/08/06 15:55:38;;;;;;;34.95;12.15;;;;;;;31.53;45.25;99654.19;4930982;29;20043;-82
2023/08/06 15:58:05;;;;;;;;;;;;;;;31.37;44.56;99657.88;4951075;28;20233;-90
2023/08/06 16:00:33;;;;;;;71.20;13.15;;;;;;;31.18;45.62;99653.13;4953701;28;20024;-88
2023/08/06 16:02:59;;;;;;;67.43;12.65;;;;;;;31.02;45.73;99649.09;4948864;29;20099;-83
2023/08/06 16:05:25;;;;;;;49.55;11.75;;;;;;;30.82;46.54;99631.50;4950833;28;20062;-85
2023/08/06 16:07:51;;;;;;;;;;;;;;;30.84;46.68;99652.41;4942832;29;20066;-85
2023/08/06 16:10:18;;;;;;;160.98;16.85;;;;;;;30.69;47.47;99644.72;4954839;29;19929;-85
2023/08/06 16:12:45;;;;;;;143.00;17.08;;;;;;;30.53;47.41;99637.88;4935943;29;20063;-83
2023/08/06 16:15:13;;;;;;;137.30;16.05;;;;;;;30.48;47.81;99648.91;4937064;29;20090;-84
2023/08/06 16:17:40;;;;;;;74.25;11.60;;;;;;;30.26;47.95;99631.69;4913334;29;20071;-85
2023/08/06 16:20:08;;;;;;;52.72;11.02;;;;;;;30.16;47.96;99634.28;4953729;29;20098;-82
2023/08/06 16:22:34;;;;;;;30.48;10.55;;;;;;;30.02;48.19;99636.66;4954359;29;20040;-89
2023/08/06 16:25:00;;;;;;;33.38;11.70;;;;;;;29.92;48.26;99632.84;4947781;29;20102;-83
2023/08/06 16:27:26;;;;;;;30.42;12.52;;;;;;;29.85;48.83;99641.47;4933753;29;20047;-84
2023/08/06 16:29:52;;;;;;;149.07;16.48;;;;;;;29.64;48.99;99629.44;4947599;28;20417;-89
2023/08/06 16:32:17;;;;;;;;;;;;;;;29.68;50.08;99654.72;4949242;29;20035;-83
2023/08/06 16:34:43;;;;;;;29.23;12.20;;;;;;;29.55;49.25;99645.31;4937161;29;20309;-89
2023/08/06 16:37:10;;;;;;;29.70;13.93;;;;;;;29.37;49.64;99635.22;4919186;29;20043;-89
2023/08/06 16:39:37;;;;;;;28.75;11.13;;;;;;;29.36;49.99;99644.09;4927502;29;20404;-88
2023/08/06 16:42:06;;;;;;;35.70;10.45;;;;;;;29.21;49.88;99637.97;4940187;29;20036;-91
2023/08/06 16:44:32;;;;;;;25.80;10.88;;;;;;;29.12;50.35;99641.34;4960718;29;20040;-93
2023/08/06 16:47:00;;;;;;;28.13;10.52;;;;;;;29.09;50.66;99650.63;4941125;29;20039;-82
2023/08/06 16:49:26;;;;;;;29.63;10.15;;;;;;;28.95;50.67;99640.41;4947575;29;20130;-90
2023/08/06 16:51:54;;;;;;;22.58;9.50;;;;;;;28.97;51.60;99654.03;4922105;29;20521;-93
2023/08/06 16:54:20;;;;;;;25.50;9.52;;;;;;;28.83;50.87;99641.03;4931829;29;20521;-83
2023/08/06 16:56:46;;;;;;;45.08;10.10;;;;;;;28.69;51.97;99632.84;4931901;29;20032;-89
2023/08/06 16:59:13;;;;;;;21.85;9.77;;;;;;;28.60;51.67;99635.41;4929785;29;20043;-85
2023/08/06 17:01:41;;;;;;;31.75;9.63;;;;;;;28.62;51.34;99644.25;4947644;29;20671;-88
2023/08/06 17:04:07;;;;;;;30.73;11.82;;;;;;;28.52;51.55;99641.16;4948903;29;20048;-81
2023/08/06 17:06:33;;;;;;;29.42;10.93;;;;;;;28.46;51.85;99654.13;4945688;29;20039;-85
2023/08/06 17:08:59;;;;;;;32.50;11.75;;;;;;;28.38;51.82;99651.81;4949049;29;20035;-89
2023/08/06 17:11:25;;;;;;;35.28;12.15;;;;;;;28.22;52.00;99632.81;4931790;29;20059;-89
2023/08/06 17:13:51;;;;;;;29.85;14.38;;;;;;;28.29;52.24;99661.59;4957325;29;20047;-90
2023/08/06 17:16:19;;;;;;;24.92;15.50;;;;;;;28.18;52.63;99648.91;4923114;29;20191;-87
2023/08/06 17:18:45;;;;;;;30.98;15.95;;;;;;;28.00;52.49;99640.75;4922636;29;20043;-87
2023/08/06 17:21:11;;;;;;;45.20;19.48;;;;;;;27.95;54.06;99649.69;4947307;29;20031;-84
2023/08/06 17:23:37;;;;;;;38.88;15.30;;;;;;;27.81;53.20;99643.00;4946864;29;20070;-88
2023/08/06 17:26:04;;;;;;;32.88;14.70;;;;;;;27.75;53.46;99638.25;4933664;29;20134;-88
2023/08/06 17:28:31;;;;;;;41.88;14.43;;;;;;;27.79;53.47;99651.06;4958211;29;20042;-88
2023/08/06 17:30:58;;;;;;;30.15;14.65;;;;;;;27.69;54.03;99651.19;4913178;29;20044;-85
2023/08/06 17:33:24;;;;;;;37.50;13.30;;;;;;;27.62;53.89;99650.06;4947233;29;20068;-88
2023/08/06 17:35:57;;;;;;;23.80;10.77;;;;;;;27.53;53.62;99646.19;4945006;29;20067;-88
2023/08/06 17:38:22;;;;;;;32.35;12.32;;;;;;;27.44;54.05;99635.44;4948391;29;20043;-88
2023/08/06 17:40:57;;;;;;;24.35;11.65;;;;;;;27.39;55.31;99645.13;4917858;29;20043;-86
2023/08/06 17:43:25;;;;;;;29.10;10.43;;;;;;;27.30;54.36;99636.41;4918456;29;20485;-84
2023/08/06 17:45:51;;;;;;;20.50;10.30;;;;;;;27.26;54.93;99637.69;4903311;29;20514;-86
2023/08/06 17:48:17;;;;;;;29.85;10.82;;;;;;;27.31;54.65;99657.66;4906272;29;20044;-86
2023/08/06 17:50:46;;;;;;;30.80;10.60;;;;;;;27.28;55.04;99658.47;4904917;29;20054;-86
2023/08/06 17:53:13;;;;;;;51.45;10.80;;;;;;;27.05;55.49;99621.84;4897589;29;20103;-85
2023/08/06 17:55:39;;;;;;;60.28;30.92;;;;;;;27.12;55.57;99641.41;4889870;29;20048;-87
2023/08/06 17:58:06;;;;;;;38.45;17.48;;;;;;;27.09;55.80;99653.47;4896795;29;20092;-85
2023/08/06 18:00:32;;;;;;;26.35;11.15;;;;;;;26.91;55.90;99637.59;4872443;29;20053;-88
2023/08/06 18:03:03;;;;;;;38.33;15.25;;;;;;;26.87;56.86;99631.22;4908647;29;20168;-89
2023/08/06 18:05:35;;;;;;;22.05;9.65;;;;;;;26.98;56.16;99655.56;4917685;29;20036;-88
2023/08/06 18:08:00;;;;;;;30.80;9.50;;;;;;;26.96;56.21;99660.84;4916214;29;20036;-90
2023/08/06 18:10:28;;;;;;;28.63;9.02;;;;;;;26.95;56.34;99654.41;4897859;29;20062;-88
2023/08/06 18:12:54;;;;;;;21.67;9.02;;;;;;;26.90;57.03;99655.66;4903989;29;20052;-88
2023/08/06 18:15:22;;;;;;;22.25;9.90;;;;;;;26.84;56.43;99651.69;4907717;29;20040;-87
2023/08/06 18:17:48;;;;;;;22.45;10.25;;;;;;;26.91;56.72;99660.03;4903274;29;20044;-88
2023/08/06 18:20:15;;;;;;;40.97;10.43;;;;;;;26.84;57.00;99654.50;4884847;29;20040;-87
2023/08/06 18:22:41;;;;;;;24.58;10.30;;;;;;;26.86;56.97;99657.72;4914394;29;20054;-86
2023/08/06 18:25:08;;;;;;;35.45;10.85;;;;;;;26.86;57.22;99654.91;4944507;29;20031;-86
2023/08/06 18:27:36;;;;;;;24.08;10.38;;;;;;;26.80;56.78;99659.34;4933957;29;20058;-91
2023/08/06 18:30:04;;;;;;;26.90;10.77;;;;;;;26.65;57.65;99650.25;4922466;29;20106;-89
2023/08/06 18:32:32;;;;;;;38.05;12.40;;;;;;;26.67;58.17;99659.06;4952845;29;20043;-89
2023/08/06 18:34:58;;;;;;;43.15;11.60;;;;;;;26.53;58.31;99653.59;4942573;29;20070;-86
2023/08/06 18:37:25;;;;;;;37.60;11.00;;;;;;;26.35;58.62;99625.66;4917529;29;20036;-85
2023/08/06 18:40:00;;;;;;;55.78;11.70;;;;;;;26.46;58.93;99645.22;4925120;29;20626;-86
2023/08/06 18:42:27;;;;;;;40.33;11.50;;;;;;;26.41;59.67;99643.63;4945641;29;20039;-90
2023/08/06 18:44:53;;;;;;;32.42;12.57;;;;;;;26.41;59.31;99652.03;4912871;29;20043;-90